Terminal Aerodrome Forecast
Issued by NWS

Home | Current Version | Previous Version | Text Only | Print | Product List | Glossary On
Versions: 1 2 3 4 5 6 7 8 9 10 11 12 13 14 15 16 17 18
100
FTUS41 KBGM 250534
TAFITH
TAF
KITH 250534Z 2506/2606 17012KT P6SM BKN140 WS020/19040KT
     FM251400 17014G26KT P6SM BKN025 OVC050
     FM251700 20013G22KT 5SM -SHRA BR OVC015
      TEMPO 2518/2520 3SM +SHRA BR OVC012
     FM252200 28010G20KT P6SM -RASN OVC035
     FM260200 29014G27KT P6SM BKN028=

USA.gov is the U.S. government's official web portal to all federal, state and local government web resources and services.